Terminal Aerodrome Forecast
Issued by NWS Knoxville/Tri Cities, TN

Home | Current Version | Previous Version | Text Only | Print | Product List | Glossary On
Versions: 1 2 3 4 5 6 7 8 9 10 11 12 13 14 15 16 17 18 19 20 21 22 23 24 25 26 27 28 29 30 31 32 33 34 35 36 37 38 39 40 41 42
052
FTUS44 KMRX 061510 AAB
TAFTRI
TAF AMD
KTRI 061510Z 0615/0712 12006KT P6SM -RA SCT015 BKN050 OVC090
     FM061600 18010KT 5SM -SHRA BR BKN007 OVC035
      TEMPO 0616/0620 2SM SHRA BR BKN008
     FM062100 27010KT 5SM -RA BR SCT010 OVC020
     FM070100 30010KT P6SM OVC010=

USA.gov is the U.S. government's official web portal to all federal, state and local government web resources and services.